Time;durP1;ratioP1;P1;durP2;ratioP2;P2;SDS_P1;SDS_P2;PMS_P1;PMS_P2;Temp;Humidity;BMP_temperature;BMP_pressure;BME280_temperature;BME280_humidity;BME280_pressure;Samples;Min_cycle;Max_cycle;Signal;HPM_P1;HPM_P2
2023/01/09 00:00:55;;;;;;;;;2.00;1.00;;;;;9.61;64.88;99806.34;2012314;28;2737809;-77
2023/01/09 00:02:08;;;;;;;;;1.50;1.00;;;;;9.60;64.75;99810.78;2012550;28;2727885;-76
2023/01/09 00:03:21;;;;;;;;;3.00;1.33;;;;;9.59;65.05;99814.31;2006013;28;2742008;-76
2023/01/09 00:04:34;;;;;;;;;2.00;1.00;;;;;9.61;65.22;99812.47;2013069;28;2720054;-77
2023/01/09 00:05:48;;;;;;;;;4.00;1.00;;;;;9.61;65.00;99811.59;2020688;28;2728403;-77
2023/01/09 00:07:01;;;;;;;;;1.17;0.50;;;;;9.60;65.12;99810.78;2017499;28;2733724;-77
2023/01/09 00:08:14;;;;;;;;;4.00;1.00;;;;;9.60;64.86;99810.78;2011702;28;2741940;-76
2023/01/09 00:09:27;;;;;;;;;1.00;1.00;;;;;9.60;64.88;99804.69;2011990;28;2726328;-76
2023/01/09 00:10:41;;;;;;;;;4.50;1.33;;;;;9.59;65.06;99801.19;2004603;28;2738850;-76
2023/01/09 00:11:54;;;;;;;;;2.33;1.67;;;;;9.60;64.92;99800.28;2004857;28;2744031;-77
2023/01/09 00:13:10;;;;;;;;;1.00;1.00;;;;;9.59;64.92;99803.81;2005645;28;2727365;-77
2023/01/09 00:14:24;;;;;;;;;0.83;0.83;;;;;9.59;65.20;99811.69;2011261;28;2727341;-76
2023/01/09 00:15:38;;;;;;;;;1.67;1.00;;;;;9.60;65.16;99807.31;2013150;28;2725346;-77
2023/01/09 00:16:54;;;;;;;;;2.00;1.00;;;;;9.59;65.03;99808.19;2013518;28;2725281;-77
2023/01/09 00:18:07;;;;;;;;;0.67;0.67;;;;;9.60;65.06;99809.91;2019754;28;2725255;-76
2023/01/09 00:19:20;;;;;;;;;1.33;1.00;;;;;9.60;65.44;99815.16;2018963;28;2735698;-76
2023/01/09 00:20:35;;;;;;;;;2.17;1.17;;;;;9.61;64.80;99816.84;2013366;28;2734649;-76
2023/01/09 00:21:48;;;;;;;;;0.50;0.50;;;;;9.60;64.92;99810.78;2013562;28;2726321;-77
2023/01/09 00:23:02;;;;;;;;;2.50;1.00;;;;;9.61;65.06;99814.22;2012348;28;2739900;-77
2023/01/09 00:24:15;;;;;;;;;3.67;1.00;;;;;9.60;64.76;99818.66;2011661;28;2735671;-77
2023/01/09 00:25:28;;;;;;;;;1.00;1.00;;;;;9.59;64.82;99814.31;2012536;28;2746111;-77
2023/01/09 00:26:41;;;;;;;;;2.00;1.00;;;;;9.60;65.38;99836.16;2012189;28;2725287;-76
2023/01/09 00:27:55;;;;;;;;;1.17;1.17;;;;;9.59;64.93;99821.31;2011871;28;2734637;-76
2023/01/09 00:29:09;;;;;;;;;1.17;1.00;;;;;9.59;64.86;99822.19;2011997;28;2734637;-77
2023/01/09 00:30:22;;;;;;;;;2.33;2.00;;;;;9.59;65.09;99827.44;2013465;28;2735694;-76
2023/01/09 00:31:36;;;;;;;;;3.33;0.33;;;;;9.59;64.88;99824.81;2013067;28;2725258;-77
2023/01/09 00:32:49;;;;;;;;;1.17;0.67;;;;;9.60;65.17;99817.78;2012281;28;2738839;-77
2023/01/09 00:34:05;;;;;;;;;3.00;1.33;;;;;9.59;65.17;99819.56;2020074;28;2729484;-77
2023/01/09 00:35:18;;;;;;;;;0.67;0.33;;;;;9.60;65.05;99820.41;2017323;28;2731524;-77
2023/01/09 00:36:32;;;;;;;;;1.83;1.00;;;;;9.60;65.25;99821.28;2010794;28;2737785;-77
2023/01/09 00:37:45;;;;;;;;;2.67;1.17;;;;;9.60;65.36;99816.03;2010374;28;2733604;-77
2023/01/09 00:38:58;;;;;;;;;2.33;0.67;;;;;9.62;65.16;99818.56;2005366;28;2729481;-77
2023/01/09 00:40:13;;;;;;;;;2.67;0.67;;;;;9.62;64.85;99822.06;2005935;28;2743082;-76
2023/01/09 00:41:55;;;;;;;;;1.00;1.00;;;;;9.61;65.33;99825.59;2013029;28;2733942;-78
2023/01/09 00:43:08;;;;;;;;;2.83;1.83;;;;;9.60;65.26;99809.91;2010946;28;2736736;-76
2023/01/09 00:44:29;;;;;;;;;2.83;0.50;;;;;9.61;65.08;99824.72;2005586;28;2733626;-76
2023/01/09 00:45:42;;;;;;;;;3.83;3.00;;;;;9.61;65.42;99816.84;2012686;28;2748274;-76
2023/01/09 00:47:13;;;;;;;;;1.67;1.00;;;;;9.61;65.12;99815.09;1989993;28;2724236;-77
2023/01/09 00:48:28;;;;;;;;;2.00;0.83;;;;;9.62;65.44;99814.19;2013533;28;2728395;-76
2023/01/09 00:49:43;;;;;;;;;2.00;1.50;;;;;9.64;65.47;99806.22;2007034;28;2737794;-77
2023/01/09 00:50:58;;;;;;;;;1.00;1.00;;;;;9.64;65.66;99812.34;2004613;28;2729434;-76
2023/01/09 00:52:13;;;;;;;;;1.00;1.00;;;;;9.66;64.86;99820.13;2004687;28;2731572;-77
2023/01/09 00:53:30;;;;;;;;;2.50;1.00;;;;;9.66;65.09;99815.75;2012173;28;2731527;-76
2023/01/09 00:54:44;;;;;;;;;2.00;1.17;;;;;9.65;64.82;99814.06;2010772;28;2730510;-77
2023/01/09 00:56:01;;;;;;;;;3.17;2.67;;;;;9.66;64.99;99813.13;2004923;28;2752381;-76
2023/01/09 00:57:14;;;;;;;;;3.33;1.83;;;;;9.66;65.44;99821.00;1989521;28;2738807;-76
2023/01/09 00:58:27;;;;;;;;;2.83;2.17;;;;;9.67;64.89;99830.59;2010786;28;2750292;-77
2023/01/09 00:59:41;;;;;;;;;2.67;1.00;;;;;9.67;64.90;99832.34;2008576;28;2727357;-76
2023/01/09 01:00:55;;;;;;;;;1.17;1.00;;;;;9.66;64.98;99826.25;2010024;28;2738827;-77
2023/01/09 01:02:08;;;;;;;;;1.33;1.00;;;;;9.66;64.96;99836.72;2011970;28;2724255;-77
2023/01/09 01:03:21;;;;;;;;;2.67;0.67;;;;;9.66;64.71;99825.38;2011714;28;2737802;-77
2023/01/09 01:07:38;;;;;;;;;1.33;1.33;;;;;9.64;64.91;99838.56;2009629;28;2738796;-76
2023/01/09 01:08:54;;;;;;;;;4.50;2.67;;;;;9.63;64.63;99829.00;2003620;28;2754956;-76
2023/01/09 01:10:15;;;;;;;;;3.50;1.00;;;;;9.63;64.72;99834.25;1981592;28;2733584;-77
2023/01/09 01:11:31;;;;;;;;;2.50;1.67;;;;;9.63;64.86;99825.53;2011653;28;2731508;-77
2023/01/09 01:12:45;;;;;;;;;2.00;1.17;;;;;9.63;64.67;99841.28;2012296;28;2736030;-77
2023/01/09 01:13:58;;;;;;;;;2.00;2.00;;;;;9.61;64.45;99838.69;2020139;28;2727349;-76
2023/01/09 01:15:12;;;;;;;;;3.00;1.00;;;;;9.60;64.83;99844.88;2013958;28;2741944;-76
2023/01/09 01:16:26;;;;;;;;;1.17;1.00;;;;;9.61;64.62;99828.22;2014556;28;2731521;-76
2023/01/09 01:17:40;;;;;;;;;1.67;0.50;;;;;9.60;64.64;99826.53;2011353;28;2725250;-76
2023/01/09 01:18:53;;;;;;;;;3.00;2.00;;;;;9.61;64.59;99838.69;2010561;28;2734702;-76
2023/01/09 01:20:12;;;;;;;;;1.67;1.00;;;;;9.61;64.80;99843.09;2011829;28;2734634;-76
2023/01/09 01:21:25;;;;;;;;;3.33;0.50;;;;;9.61;64.86;99835.22;1990200;28;2727345;-77
2023/01/09 01:22:41;;;;;;;;;8.17;7.50;;;;;9.61;64.95;99833.47;2010706;28;2733592;-77
2023/01/09 01:23:52;;;;;;;;;71.00;53.67;;;;;9.63;64.82;99836.03;1983751;28;3632880;-76
2023/01/09 01:25:05;;;;;;;;;44.20;35.60;;;;;9.62;64.87;99834.31;1978370;28;3588736;-77
2023/01/09 01:26:16;;;;;;;;;26.67;20.00;;;;;9.62;64.90;99824.69;1983714;28;3589847;-77
2023/01/09 01:27:28;;;;;;;;;8.00;5.00;;;;;9.63;64.69;99826.38;1997995;28;3455454;-76
2023/01/09 01:28:42;;;;;;;;;6.33;3.83;;;;;9.65;64.74;99834.19;2012776;28;2744386;-76
2023/01/09 01:29:55;;;;;;;;;3.83;3.00;;;;;9.64;64.85;99841.19;2012250;28;2754931;-76
2023/01/09 01:31:15;;;;;;;;;3.50;0.83;;;;;9.65;64.90;99840.28;1990115;28;2741929;-76
2023/01/09 01:32:29;;;;;;;;;5.33;3.17;;;;;9.65;64.98;99842.91;2014349;28;2739834;-77
2023/01/09 01:33:42;;;;;;;;;5.00;3.17;;;;;9.65;64.86;99842.06;1996865;28;2739865;-77
2023/01/09 01:34:55;;;;;;;;;6.00;4.00;;;;;9.66;64.39;99849.00;1997720;28;2739876;-77
2023/01/09 01:36:09;;;;;;;;;22.83;17.50;;;;;9.63;64.69;99839.47;1995517;28;1840943;-77
2023/01/09 01:37:23;;;;;;;;;2.67;2.00;;;;;9.65;65.04;99839.44;1989300;28;2737774;-77
2023/01/09 01:38:36;;;;;;;;;6.17;3.17;;;;;9.64;64.73;99835.97;2005749;28;2744012;-76
2023/01/09 01:39:50;;;;;;;;;2.67;2.00;;;;;9.66;65.00;99849.00;1981829;28;2751383;-76
2023/01/09 01:41:04;;;;;;;;;1.00;1.00;;;;;9.65;64.86;99850.78;1983409;28;2731520;-77
2023/01/09 01:42:18;;;;;;;;;5.17;1.17;;;;;9.65;64.80;99858.66;2014529;28;2729525;-76
2023/01/09 01:44:02;;;;;;;;;2.00;2.00;;;;;9.66;65.05;99852.47;2014051;28;2737797;-76
2023/01/09 01:45:25;;;;;;;;;3.33;2.50;;;;;9.65;64.95;99863.91;2013864;28;2744011;-77
2023/01/09 01:46:38;;;;;;;;;5.17;3.83;;;;;9.66;64.65;99862.97;1992232;28;2732561;-77
2023/01/09 01:48:11;;;;;;;;;2.83;2.83;;;;;9.66;64.65;99857.72;2016551;28;2748186;-76
2023/01/09 01:49:21;;;;;;;;;9.33;3.00;;;;;9.66;64.80;99852.47;1955624;28;3475225;-77
2023/01/09 01:50:48;;;;;;;;;9.00;6.25;;;;;9.67;64.86;99848.09;2004133;28;2751654;-77
2023/01/09 01:52:02;;;;;;;;;3.83;2.50;;;;;9.66;64.70;99849.00;2005811;28;2746118;-77
2023/01/09 01:53:20;;;;;;;;;6.67;1.50;;;;;9.66;64.85;99857.72;2012233;28;2734668;-77
2023/01/09 01:54:34;;;;;;;;;4.33;3.67;;;;;9.66;64.70;99859.50;1989725;28;2752731;-77
2023/01/09 01:56:19;;;;;;;;;4.00;3.00;;;;;9.64;64.97;99856.94;1963343;28;2754428;-77
2023/01/09 01:57:33;;;;;;;;;3.83;1.50;;;;;9.64;64.84;99864.81;2005331;28;2733588;-76
2023/01/09 01:58:53;;;;;;;;;2.83;0.17;;;;;9.62;64.99;99850.91;1983311;28;2728390;-77
2023/01/09 02:00:07;;;;;;;;;2.33;1.17;;;;;9.63;64.79;99855.22;2005928;28;2738804;-77
2023/01/09 02:01:23;;;;;;;;;1.83;0.00;;;;;9.62;64.89;99850.06;2006000;28;2731572;-77
2023/01/09 02:02:37;;;;;;;;;5.00;2.00;;;;;9.60;65.12;99858.00;2006005;28;2752337;-77
2023/01/09 02:03:53;;;;;;;;;3.50;1.67;;;;;9.61;65.04;99857.06;2014109;28;2727420;-77
2023/01/09 02:05:06;;;;;;;;;3.17;2.00;;;;;9.61;64.94;99857.06;2014274;28;2731513;-76
2023/01/09 02:06:20;;;;;;;;;5.33;2.00;;;;;9.60;64.97;99855.38;2010813;28;2752356;-77
2023/01/09 02:07:33;;;;;;;;;4.83;1.00;;;;;9.59;64.54;99861.53;1996944;28;2741995;-76
2023/01/09 02:08:47;;;;;;;;;1.00;1.00;;;;;9.58;64.61;99859.81;2017917;28;2737789;-77
2023/01/09 02:10:01;;;;;;;;;1.50;1.50;;;;;9.58;64.96;99854.56;2009281;28;2731533;-77
2023/01/09 02:11:17;;;;;;;;;4.83;1.00;;;;;9.58;64.80;99859.81;2013225;28;2739849;-77
2023/01/09 02:12:30;;;;;;;;;2.67;1.00;;;;;9.58;65.06;99859.81;2014299;28;2730474;-77
2023/01/09 02:13:44;;;;;;;;;4.00;2.00;;;;;9.57;65.02;99856.38;2013789;28;2739881;-76
2023/01/09 02:15:10;;;;;;;;;3.50;2.00;;;;;9.57;65.07;99863.38;2013071;28;2746103;-76
2023/01/09 02:16:29;;;;;;;;;2.00;0.17;;;;;9.57;65.10;99863.38;2009417;28;2730509;-76
2023/01/09 02:18:01;;;;;;;;;2.83;1.67;;;;;9.57;64.90;99868.63;2021013;28;2738827;-77
2023/01/09 02:19:14;;;;;;;;;2.33;1.00;;;;;9.56;65.10;99872.16;2017800;28;2737819;-77
2023/01/09 02:20:57;;;;;;;;;4.33;1.50;;;;;9.54;65.07;99874.84;2013268;28;2734645;-77
2023/01/09 02:22:23;;;;;;;;;1.83;1.83;;;;;9.55;65.16;99867.84;2014043;28;2730471;-76
2023/01/09 02:24:04;;;;;;;;;4.83;1.00;;;;;9.55;65.30;99873.94;2013525;28;2736727;-76
2023/01/09 02:25:32;;;;;;;;;3.17;1.83;;;;;9.55;65.16;99875.72;2005106;28;2732551;-77
2023/01/09 02:27:03;;;;;;;;;2.67;1.00;;;;;9.56;65.00;99878.25;2010538;28;2737774;-77
2023/01/09 02:28:47;;;;;;;;;3.33;2.33;;;;;9.56;65.03;99864.28;2019899;28;2741925;-77
2023/01/09 02:30:32;;;;;;;;;4.33;1.50;;;;;9.57;65.27;99863.38;2013379;28;2735699;-77
2023/01/09 02:32:02;;;;;;;;;2.00;1.67;;;;;9.55;64.97;99870.47;2012870;28;2727385;-76
2023/01/09 02:33:40;;;;;;;;;2.83;1.00;;;;;9.54;65.16;99879.25;2011510;28;2728388;-77
2023/01/09 02:35:09;;;;;;;;;4.67;4.00;;;;;9.53;64.95;99875.75;2012267;28;2745085;-77
2023/01/09 02:36:48;;;;;;;;;5.17;2.33;;;;;9.53;65.45;99878.38;1990451;28;2734684;-77
2023/01/09 02:38:16;;;;;;;;;1.83;1.00;;;;;9.53;65.53;99891.50;2011375;28;2737770;-77
2023/01/09 02:39:42;;;;;;;;;3.17;1.00;;;;;9.52;65.83;99881.09;2005728;28;2736729;-76
2023/01/09 02:41:04;;;;;;;;;3.33;3.00;;;;;9.53;65.17;99894.13;2003756;28;2754423;-77
2023/01/09 02:42:21;;;;;;;;;1.67;1.00;;;;;9.53;65.00;99893.28;1990513;28;2731528;-76
2023/01/09 02:43:34;;;;;;;;;3.00;1.50;;;;;9.52;65.77;99897.69;2018927;28;2730514;-77
2023/01/09 02:44:48;;;;;;;;;4.17;1.50;;;;;9.52;65.19;99894.19;2013426;28;2727354;-76
2023/01/09 02:46:01;;;;;;;;;6.50;1.00;;;;;9.52;65.52;99895.06;1992290;28;2748613;-76
2023/01/09 02:47:14;;;;;;;;;3.83;1.33;;;;;9.52;65.57;99915.19;2012961;28;2737769;-76
2023/01/09 02:48:29;;;;;;;;;1.50;1.00;;;;;9.51;65.48;99895.09;2013389;28;2734668;-76
2023/01/09 02:49:48;;;;;;;;;1.67;1.17;;;;;9.52;65.58;99915.19;2020747;28;2737786;-76
2023/01/09 02:51:07;;;;;;;;;2.50;1.00;;;;;9.53;65.58;99909.03;2018090;28;2746099;-77
2023/01/09 02:52:29;;;;;;;;;1.67;1.17;;;;;9.54;65.52;99902.84;2006765;28;2739869;-76
2023/01/09 02:53:42;;;;;;;;;1.83;1.17;;;;;9.54;65.42;99901.09;1998598;28;2732580;-76
2023/01/09 02:54:55;;;;;;;;;5.83;2.00;;;;;9.55;65.52;99909.81;2011239;28;2732565;-77
2023/01/09 02:56:37;;;;;;;;;4.33;1.00;;;;;9.57;65.77;99900.09;2011729;28;2732609;-77
2023/01/09 02:58:03;;;;;;;;;1.67;1.17;;;;;9.58;65.66;99891.31;2013076;28;2725259;-76
2023/01/09 02:59:21;;;;;;;;;2.50;1.33;;;;;9.60;65.54;99899.97;2012706;28;2732538;-76
2023/01/09 03:00:37;;;;;;;;;8.67;2.50;;;;;9.60;65.46;99899.97;2011873;28;2762816;-77
2023/01/09 03:02:15;;;;;;;;;1.67;1.67;;;;;9.61;65.45;99900.81;2011213;28;2739885;-76
2023/01/09 03:03:50;;;;;;;;;1.00;1.00;;;;;9.60;65.08;99879.00;1982661;28;2733604;-76
2023/01/09 03:05:22;;;;;;;;;3.33;1.17;;;;;9.61;65.48;99875.44;2012692;28;2730483;-77
2023/01/09 03:06:44;;;;;;;;;4.67;1.83;;;;;9.61;65.52;99880.69;2008333;28;2722158;-77
2023/01/09 03:08:03;;;;;;;;;4.00;1.17;;;;;9.60;65.43;99876.38;2010993;28;2730499;-77
2023/01/09 03:09:21;;;;;;;;;3.67;2.33;;;;;9.61;65.21;99866.69;1998972;28;2750257;-77
2023/01/09 03:10:44;;;;;;;;;2.00;1.83;;;;;9.60;65.35;99875.50;1990339;28;2733634;-76
2023/01/09 03:12:26;;;;;;;;;2.83;1.67;;;;;9.59;65.26;99877.28;2005359;28;2728443;-77
2023/01/09 03:13:52;;;;;;;;;2.67;1.33;;;;;9.60;65.41;99886.00;2005722;28;2732573;-77
2023/01/09 03:15:11;;;;;;;;;3.50;1.33;;;;;9.59;65.37;99877.28;2004545;28;2739870;-77
2023/01/09 03:16:36;;;;;;;;;3.17;1.50;;;;;9.59;65.10;99879.91;2006300;28;2727861;-77
2023/01/09 03:17:51;;;;;;;;;2.00;1.50;;;;;9.57;65.46;99890.47;2011843;28;2749227;-77
2023/01/09 03:19:09;;;;;;;;;2.50;2.00;;;;;9.57;65.33;99889.63;2012624;28;2742352;-77
2023/01/09 03:20:26;;;;;;;;;2.00;2.00;;;;;9.57;65.47;99900.09;2013034;28;2745092;-76
2023/01/09 03:21:41;;;;;;;;;3.67;1.67;;;;;9.56;65.27;99899.25;2013366;28;2736721;-77
2023/01/09 03:23:00;;;;;;;;;4.33;2.00;;;;;9.56;65.30;99891.38;2012283;28;2737805;-77
2023/01/09 03:24:14;;;;;;;;;2.00;1.00;;;;;9.55;65.64;99897.56;2013453;28;2734668;-77
2023/01/09 03:25:29;;;;;;;;;2.33;0.00;;;;;9.57;65.60;99907.97;2014119;28;2733603;-77
2023/01/09 03:26:43;;;;;;;;;2.83;1.50;;;;;9.56;65.30;99899.25;2012792;28;2733050;-76
2023/01/09 03:27:59;;;;;;;;;4.67;1.83;;;;;9.57;65.01;99902.72;2011504;28;2753406;-77
2023/01/09 03:29:13;;;;;;;;;2.67;1.00;;;;;9.57;65.60;99894.84;2012065;28;2746099;-76
2023/01/09 03:30:28;;;;;;;;;2.33;1.33;;;;;9.57;65.07;99906.22;1990396;28;2738308;-76
2023/01/09 03:31:41;;;;;;;;;3.17;1.17;;;;;9.56;65.46;99893.13;2013182;28;2723198;-77
2023/01/09 03:32:56;;;;;;;;;4.33;2.00;;;;;9.55;65.26;99905.44;2012682;28;2735725;-76
2023/01/09 03:34:09;;;;;;;;;1.83;1.50;;;;;9.57;65.10;99900.09;2011342;28;2745056;-77
2023/01/09 03:35:23;;;;;;;;;2.50;2.00;;;;;9.57;65.17;99913.22;2004591;28;2740416;-77
2023/01/09 03:36:36;;;;;;;;;3.33;2.00;;;;;9.58;65.12;99907.03;2014024;28;2752348;-77
2023/01/09 03:37:50;;;;;;;;;4.17;1.50;;;;;9.57;64.97;99905.34;2018412;28;2737821;-77
2023/01/09 03:39:01;;;;;;;;;4.67;1.00;;;;;9.60;65.16;99907.00;1987122;28;2739860;-76
2023/01/09 03:40:12;;;;;;;;;1.00;1.00;;;;;9.60;65.47;99910.47;2011786;28;2731555;-77
2023/01/09 03:41:25;;;;;;;;;3.00;1.67;;;;;9.59;64.90;99911.38;2008724;28;2737766;-77
2023/01/09 03:42:39;;;;;;;;;6.33;0.83;;;;;9.59;65.42;99907.91;2005104;28;2739300;-77
2023/01/09 03:43:52;;;;;;;;;0.00;0.00;;;;;9.60;65.24;99922.75;2006074;28;2722168;-77
2023/01/09 03:45:05;;;;;;;;;2.33;2.33;;;;;9.59;65.10;99919.25;2005775;28;2731677;-77
2023/01/09 03:46:18;;;;;;;;;4.00;2.00;;;;;9.61;65.18;99914.78;2011705;28;2737769;-77
2023/01/09 03:47:32;;;;;;;;;3.33;2.00;;;;;9.61;64.96;99917.41;2012991;28;2734673;-77
2023/01/09 03:48:45;;;;;;;;;2.17;1.00;;;;;9.61;65.17;99917.41;2012801;28;2738850;-77
2023/01/09 03:49:58;;;;;;;;;3.83;2.00;;;;;9.62;65.12;99924.38;2013498;28;2726315;-77
2023/01/09 03:51:11;;;;;;;;;2.00;1.83;;;;;9.62;65.00;99913.88;2006927;28;2734652;-77
2023/01/09 03:52:25;;;;;;;;;2.83;2.17;;;;;9.64;65.30;99922.53;2005360;28;2730557;-76
2023/01/09 03:53:38;;;;;;;;;4.67;2.00;;;;;9.65;65.17;99923.41;1982261;28;2739830;-76
2023/01/09 03:54:51;;;;;;;;;1.00;1.00;;;;;9.64;65.28;99917.28;2012350;28;2739846;-77
2023/01/09 03:56:04;;;;;;;;;2.83;1.33;;;;;9.65;65.31;99919.00;2011589;28;2729452;-77
2023/01/09 03:57:18;;;;;;;;;4.50;2.67;;;;;9.67;65.06;99926.81;2011473;28;2737777;-77
2023/01/09 03:58:31;;;;;;;;;1.67;0.00;;;;;9.66;65.10;99919.84;1989801;28;2733602;-76
2023/01/09 03:59:44;;;;;;;;;2.17;0.17;;;;;9.67;65.09;99921.56;2011602;28;2735717;-77
2023/01/09 04:00:59;;;;;;;;;3.00;2.00;;;;;9.67;65.12;99921.56;2012985;28;2737761;-76
2023/01/09 04:02:13;;;;;;;;;4.00;1.83;;;;;9.67;64.97;99927.66;2012265;28;2734669;-77
2023/01/09 04:03:26;;;;;;;;;1.67;1.00;;;;;9.66;64.84;99919.84;2004958;28;2731879;-77
2023/01/09 04:04:39;;;;;;;;;2.33;2.00;;;;;9.66;65.16;99928.56;2005281;28;2737826;-76
2023/01/09 04:05:53;;;;;;;;;2.50;1.67;;;;;9.66;64.90;99925.09;2005036;28;2730483;-77
2023/01/09 04:07:06;;;;;;;;;3.00;1.00;;;;;9.65;65.01;99924.25;2010723;28;2733611;-77
2023/01/09 04:08:20;;;;;;;;;7.00;2.83;;;;;9.66;64.80;99928.56;1988950;28;2754428;-77
2023/01/09 04:09:33;;;;;;;;;5.17;2.00;;;;;9.67;64.85;99930.28;1997693;28;2735715;-77
2023/01/09 04:10:48;;;;;;;;;4.00;2.00;;;;;9.68;64.97;99939.84;2019570;28;2731556;-76
2023/01/09 04:12:01;;;;;;;;;3.33;1.00;;;;;9.68;65.04;99931.97;2005049;28;2736736;-77
2023/01/09 04:13:14;;;;;;;;;3.17;1.83;;;;;9.70;65.08;99941.56;2004525;28;2736802;-77
2023/01/09 04:14:27;;;;;;;;;1.67;0.50;;;;;9.70;64.94;99941.56;2004737;28;2727374;-77
2023/01/09 04:15:40;;;;;;;;;2.33;1.00;;;;;9.69;64.98;99948.59;2005091;28;2731512;-77
2023/01/09 04:16:54;;;;;;;;;4.50;2.00;;;;;9.70;64.94;99957.31;2008185;28;2734665;-77
2023/01/09 04:18:07;;;;;;;;;2.83;2.00;;;;;9.71;64.77;99959.00;2012217;28;2735004;-77
2023/01/09 04:19:20;;;;;;;;;2.83;2.00;;;;;9.70;64.83;99958.19;2012430;28;2752746;-77
2023/01/09 04:20:34;;;;;;;;;2.67;1.50;;;;;9.70;65.10;99957.31;1988818;28;2745068;-76
2023/01/09 04:21:47;;;;;;;;;1.50;1.00;;;;;9.70;65.15;99967.81;1990075;28;2733647;-76
2023/01/09 04:23:01;;;;;;;;;2.33;1.83;;;;;9.68;64.69;99960.84;2011777;28;2734648;-77
2023/01/09 04:24:14;;;;;;;;;3.17;1.17;;;;;9.69;64.83;99956.47;2012578;28;2732589;-77
2023/01/09 04:25:27;;;;;;;;;3.00;1.17;;;;;9.68;65.03;99966.09;2020613;28;2725258;-77
2023/01/09 04:26:40;;;;;;;;;2.00;1.00;;;;;9.70;64.76;99970.44;2019065;28;2733607;-77
2023/01/09 04:27:53;;;;;;;;;4.00;1.33;;;;;9.71;65.11;99974.75;2012383;28;2733611;-77
2023/01/09 04:29:07;;;;;;;;;1.83;0.83;;;;;9.73;65.26;99975.56;2012684;28;2738826;-77
2023/01/09 04:30:20;;;;;;;;;2.00;1.00;;;;;9.74;65.17;99980.75;2012266;28;2746084;-77
2023/01/09 04:31:33;;;;;;;;;0.33;0.33;;;;;9.76;65.11;99973.66;1985629;28;2727471;-77
2023/01/09 04:32:46;;;;;;;;;3.83;1.00;;;;;9.78;65.08;99965.69;2004702;28;2746103;-77
2023/01/09 04:34:00;;;;;;;;;1.00;1.00;;;;;9.81;64.78;99976.06;2006326;28;2730534;-77
2023/01/09 04:35:13;;;;;;;;;2.33;1.83;;;;;9.82;64.95;99984.81;2012933;28;2733616;-76
2023/01/09 04:36:26;;;;;;;;;2.33;1.50;;;;;9.85;64.81;99972.41;2011788;28;2740915;-77
2023/01/09 04:37:39;;;;;;;;;2.83;2.00;;;;;9.87;65.02;99970.59;2011658;28;2739924;-76
2023/01/09 04:38:52;;;;;;;;;4.17;1.00;;;;;9.90;65.35;99977.47;2012195;28;2746123;-76
2023/01/09 04:40:10;;;;;;;;;2.83;0.17;;;;;9.92;64.64;99972.16;2012111;28;2728411;-77
2023/01/09 04:42:55;;;;;;;;;2.17;1.33;;;;;9.96;65.18;99969.31;2012128;28;2729445;-76
2023/01/09 04:44:08;;;;;;;;;1.17;1.00;;;;;9.97;65.00;99960.53;2004942;28;2727357;-77
2023/01/09 04:45:22;;;;;;;;;1.00;0.00;;;;;9.98;64.55;99969.25;2008086;28;2727356;-77
2023/01/09 04:46:35;;;;;;;;;2.17;1.17;;;;;9.98;64.66;99969.25;2013584;28;2740907;-76
2023/01/09 04:47:48;;;;;;;;;5.00;1.83;;;;;9.98;64.88;99962.22;2011600;28;2735671;-77
2023/01/09 04:49:01;;;;;;;;;1.67;1.00;;;;;10.00;64.85;99975.31;2013976;28;2735711;-77
2023/01/09 04:50:15;;;;;;;;;2.83;1.50;;;;;9.99;64.59;99973.59;1994810;28;2734681;-78
2023/01/09 04:51:28;;;;;;;;;1.33;1.17;;;;;10.01;65.08;99969.13;2007528;28;2744048;-77
2023/01/09 04:52:41;;;;;;;;;4.00;1.00;;;;;10.02;65.01;99970.84;2012182;28;2737761;-76
2023/01/09 04:53:54;;;;;;;;;1.50;1.00;;;;;10.01;64.90;99963.88;1989798;28;2740919;-76
2023/01/09 04:55:08;;;;;;;;;1.33;1.17;;;;;10.00;64.70;99964.81;2012622;28;2741947;-76
2023/01/09 04:56:22;;;;;;;;;1.17;1.00;;;;;10.01;64.81;99972.63;1989553;28;2744453;-76
2023/01/09 04:57:35;;;;;;;;;1.67;0.67;;;;;10.02;64.61;99976.09;2013047;28;2730510;-76
2023/01/09 04:58:48;;;;;;;;;1.83;1.00;;;;;10.03;64.66;99977.78;2011965;28;2731523;-76
2023/01/09 05:00:04;;;;;;;;;4.33;1.00;;;;;10.02;64.51;99978.72;2011901;28;2737762;-76
2023/01/09 05:01:17;;;;;;;;;0.83;0.50;;;;;10.02;64.50;99973.47;2004376;28;2737781;-77
2023/01/09 05:02:30;;;;;;;;;1.00;1.00;;;;;10.02;64.67;99978.72;2004187;28;2741968;-76
2023/01/09 05:03:44;;;;;;;;;1.00;1.00;;;;;10.02;64.55;99978.72;2004683;28;2725294;-76
2023/01/09 05:04:57;;;;;;;;;3.67;1.00;;;;;10.02;64.39;99984.81;2005572;28;2735704;-77
2023/01/09 05:06:10;;;;;;;;;1.00;1.00;;;;;10.01;64.50;99974.38;2006319;28;2734676;-77
2023/01/09 05:07:23;;;;;;;;;3.00;1.33;;;;;10.02;64.27;99978.72;2012259;28;2741932;-77
2023/01/09 05:08:36;;;;;;;;;4.17;2.00;;;;;10.01;64.80;99980.50;2013555;28;2734669;-76
2023/01/09 05:09:50;;;;;;;;;0.33;0.33;;;;;10.01;64.45;99972.63;2014350;28;2730471;-76
2023/01/09 05:11:03;;;;;;;;;2.50;1.17;;;;;10.02;64.51;99976.94;2013966;28;2728407;-77
2023/01/09 05:12:16;;;;;;;;;2.00;1.00;;;;;10.03;64.77;99977.78;2006426;28;2734669;-77
2023/01/09 05:13:29;;;;;;;;;3.17;0.50;;;;;10.04;64.54;99979.50;2006869;28;2726305;-77
2023/01/09 05:14:43;;;;;;;;;3.67;1.33;;;;;10.04;64.67;99982.13;2005357;28;2742997;-77
2023/01/09 05:15:56;;;;;;;;;2.33;1.33;;;;;10.04;64.45;99976.88;2013385;28;2734669;-76
2023/01/09 05:17:09;;;;;;;;;1.50;1.50;;;;;10.05;64.65;99981.19;2016324;28;2733612;-76
2023/01/09 05:18:22;;;;;;;;;4.83;1.33;;;;;10.06;64.76;99979.44;2013111;28;2737235;-77
2023/01/09 05:19:36;;;;;;;;;5.33;1.00;;;;;10.07;64.38;99986.41;2020817;28;2738815;-77
2023/01/09 05:20:49;;;;;;;;;4.33;1.50;;;;;10.08;64.34;99988.09;2018906;28;2740914;-77
2023/01/09 05:22:02;;;;;;;;;3.33;1.00;;;;;10.08;64.63;99988.94;2021322;28;2739848;-76
2023/01/09 05:23:15;;;;;;;;;1.00;1.00;;;;;10.09;64.49;99997.69;1997694;28;2727396;-77
2023/01/09 05:24:29;;;;;;;;;2.83;1.83;;;;;10.09;64.57;99990.66;2013907;28;2740886;-77
2023/01/09 05:25:42;;;;;;;;;2.50;1.83;;;;;10.10;64.44;99983.66;1991074;28;2736741;-77
2023/01/09 05:26:55;;;;;;;;;3.17;0.83;;;;;10.11;64.56;99993.22;2012690;28;2735717;-78
2023/01/09 05:28:08;;;;;;;;;2.33;0.83;;;;;10.12;64.83;99990.50;2013663;28;2731520;-77
2023/01/09 05:29:22;;;;;;;;;4.00;3.00;;;;;10.13;64.78;99992.22;1989873;28;2744019;-77
2023/01/09 05:30:35;;;;;;;;;1.83;1.00;;;;;10.14;64.73;99993.09;1990338;28;2737814;-77
2023/01/09 05:31:48;;;;;;;;;3.00;1.17;;;;;10.14;64.67;99995.72;2012998;28;2738835;-77
2023/01/09 05:33:02;;;;;;;;;1.83;1.00;;;;;10.15;64.91;100000.03;1991434;28;2737785;-77
2023/01/09 05:34:15;;;;;;;;;3.50;1.67;;;;;10.15;64.68;100000.03;2014327;28;2730471;-77
2023/01/09 05:35:28;;;;;;;;;2.00;1.00;;;;;10.15;64.36;100010.53;2013498;28;2739862;-77
2023/01/09 05:36:42;;;;;;;;;2.00;2.00;;;;;10.16;64.63;100006.16;1990380;28;2735690;-77
2023/01/09 05:37:55;;;;;;;;;1.50;0.50;;;;;10.17;64.76;100003.47;1990485;28;2732574;-76
2023/01/09 05:39:08;;;;;;;;;2.00;0.83;;;;;10.19;64.49;100011.28;2014623;28;2725266;-76
2023/01/09 05:40:22;;;;;;;;;2.83;0.17;;;;;10.18;64.51;100010.41;2006722;28;2737773;-77
2023/01/09 05:41:35;;;;;;;;;1.50;1.00;;;;;10.20;64.49;100028.72;2005186;28;2737769;-77
2023/01/09 05:42:48;;;;;;;;;0.00;0.00;;;;;10.20;64.27;100023.47;1992091;28;2729452;-77
2023/01/09 05:44:03;;;;;;;;;2.33;1.67;;;;;10.21;64.81;100022.56;2017797;28;2736709;-77
2023/01/09 05:45:16;;;;;;;;;2.33;1.50;;;;;10.21;64.65;100026.03;2014661;28;2735702;-76
2023/01/09 05:46:31;;;;;;;;;3.83;1.00;;;;;10.22;64.17;100022.47;2013563;28;2738879;-77
2023/01/09 05:47:44;;;;;;;;;3.83;0.50;;;;;10.21;64.10;100023.41;1989985;28;2741968;-77
2023/01/09 05:48:58;;;;;;;;;2.67;0.00;;;;;10.22;64.46;100029.53;2006486;28;2728398;-77
2023/01/09 05:50:12;;;;;;;;;0.50;0.00;;;;;10.23;63.97;100024.19;2013844;28;2733643;-76
2023/01/09 05:51:25;;;;;;;;;0.67;0.00;;;;;10.23;64.06;100018.09;2013958;28;2733962;-76
2023/01/09 05:52:39;;;;;;;;;2.17;1.00;;;;;10.24;63.86;100036.44;2014218;28;2734649;-77
2023/01/09 05:53:53;;;;;;;;;2.00;1.00;;;;;10.23;63.77;100034.72;2011781;28;2735718;-77
2023/01/09 05:55:07;;;;;;;;;1.00;0.00;;;;;10.24;63.87;100030.31;2013875;28;2727413;-77
2023/01/09 05:56:20;;;;;;;;;1.83;0.83;;;;;10.26;63.76;100038.13;2013942;28;2727345;-76
2023/01/09 05:57:33;;;;;;;;;2.83;1.00;;;;;10.24;63.86;100032.94;2013117;28;2742989;-77